createdAt,value
2018-05-25T00:01:14.096Z,17.50
2018-05-25T00:03:42.337Z,17.50
2018-05-25T00:06:11.446Z,17.40
2018-05-25T00:08:39.643Z,17.40
2018-05-25T00:11:07.896Z,17.30
2018-05-25T00:13:36.908Z,17.40
2018-05-25T00:16:05.085Z,17.40
2018-05-25T00:18:33.286Z,17.20
2018-05-25T00:21:01.507Z,17.20
2018-05-25T00:23:29.732Z,17.10
2018-05-25T00:25:57.925Z,17.10
2018-05-25T00:28:26.149Z,17.20
2018-05-25T00:30:54.376Z,17.20
2018-05-25T00:33:22.609Z,17.20
2018-05-25T00:35:50.825Z,17.20
2018-05-25T00:38:19.049Z,17.30
2018-05-25T00:40:47.273Z,17.20
2018-05-25T00:43:15.501Z,17.20
2018-05-25T00:45:45.167Z,17.20
2018-05-25T00:48:13.387Z,17.20
2018-05-25T00:50:41.604Z,17.30
2018-05-25T00:53:09.829Z,17.10
2018-05-25T00:55:40.878Z,17.00
2018-05-25T00:58:09.138Z,17.00
2018-05-25T01:00:37.364Z,17.00
2018-05-25T01:03:05.576Z,16.70
2018-05-25T01:05:33.810Z,16.50
2018-05-25T01:08:02.038Z,16.50
2018-05-25T01:10:30.273Z,16.60
2018-05-25T01:12:58.495Z,16.60
2018-05-25T01:15:26.717Z,16.70
2018-05-25T01:17:54.993Z,16.60
2018-05-25T01:20:23.216Z,16.80
2018-05-25T01:22:51.451Z,16.80
2018-05-25T01:25:19.683Z,16.70
2018-05-25T01:27:47.926Z,16.60
2018-05-25T01:30:16.918Z,16.50
2018-05-25T01:32:45.922Z,16.50
2018-05-25T01:35:14.156Z,16.50
2018-05-25T01:37:42.368Z,16.50
2018-05-25T01:40:11.366Z,16.60
2018-05-25T01:42:39.582Z,16.60
2018-05-25T01:45:07.822Z,16.70
2018-05-25T01:47:36.027Z,16.70
2018-05-25T01:50:04.268Z,16.70
2018-05-25T01:52:32.532Z,16.70
2018-05-25T01:55:00.766Z,16.60
2018-05-25T01:57:28.966Z,16.50
2018-05-25T01:59:57.214Z,16.50
2018-05-25T02:02:25.420Z,16.40
2018-05-25T02:04:53.632Z,16.40
2018-05-25T02:07:21.903Z,16.50
2018-05-25T02:09:50.122Z,16.60
2018-05-25T02:12:18.417Z,16.60
2018-05-25T02:14:47.428Z,16.70
2018-05-25T02:17:16.422Z,16.60
2018-05-25T02:19:45.423Z,16.60
2018-05-25T02:22:13.663Z,16.60
2018-05-25T02:24:41.907Z,16.40
2018-05-25T02:27:10.133Z,16.50
2018-05-25T02:29:39.146Z,16.60
2018-05-25T02:32:07.381Z,16.60
2018-05-25T02:34:35.623Z,16.50
2018-05-25T02:37:03.852Z,16.40
2018-05-25T02:39:32.091Z,16.30
2018-05-25T02:42:00.310Z,16.40
2018-05-25T02:44:29.309Z,16.40
2018-05-25T02:46:58.320Z,16.50
2018-05-25T02:49:26.543Z,16.50
2018-05-25T02:51:54.760Z,16.50
2018-05-25T02:54:22.982Z,16.40
2018-05-25T02:56:51.229Z,16.50
2018-05-25T02:59:19.483Z,16.50
2018-05-25T03:01:47.716Z,16.50
2018-05-25T03:04:15.934Z,16.50
2018-05-25T03:06:44.146Z,16.50
2018-05-25T03:09:12.356Z,16.50
2018-05-25T03:11:40.602Z,16.40
2018-05-25T03:14:08.834Z,16.50
2018-05-25T03:16:37.038Z,16.50
2018-05-25T03:19:05.261Z,16.50
2018-05-25T03:21:33.478Z,16.40
2018-05-25T03:24:01.718Z,16.30
2018-05-25T03:26:30.698Z,16.40
2018-05-25T03:28:58.933Z,16.30
2018-05-25T03:31:27.162Z,16.30
2018-05-25T03:33:56.163Z,16.40
2018-05-25T03:36:25.140Z,16.40
2018-05-25T03:38:54.129Z,16.40
2018-05-25T03:41:22.352Z,16.40
2018-05-25T03:43:50.578Z,16.40
2018-05-25T03:46:18.806Z,16.40
2018-05-25T03:48:47.045Z,16.40
2018-05-25T03:51:16.006Z,16.30
2018-05-25T03:53:44.250Z,16.30
2018-05-25T03:56:12.455Z,16.30
2018-05-25T03:58:52.420Z,16.30
2018-05-25T04:01:32.333Z,16.30
2018-05-25T04:04:00.543Z,16.30
2018-05-25T04:06:28.739Z,16.20
2018-05-25T04:08:57.731Z,16.20
2018-05-25T04:11:26.712Z,16.20
2018-05-25T04:13:55.696Z,16.30
2018-05-25T04:16:24.083Z,16.20
2018-05-25T04:18:52.300Z,16.30
2018-05-25T04:21:20.545Z,16.20
2018-05-25T04:23:49.520Z,16.30
2018-05-25T04:26:17.886Z,16.30
2018-05-25T04:28:46.115Z,16.30
2018-05-25T04:31:14.310Z,16.30
2018-05-25T04:33:42.536Z,16.30
2018-05-25T04:36:11.551Z,16.20
2018-05-25T04:38:39.775Z,16.20
2018-05-25T04:41:07.996Z,16.20
2018-05-25T04:43:36.973Z,16.20
2018-05-25T04:46:05.951Z,16.20
2018-05-25T04:48:34.179Z,16.20
2018-05-25T04:51:02.413Z,16.30
2018-05-25T04:53:31.390Z,16.30
2018-05-25T04:55:59.637Z,16.30
2018-05-25T04:58:27.847Z,16.40
2018-05-25T05:00:56.855Z,16.40
2018-05-25T05:03:25.950Z,16.40
2018-05-25T05:05:54.665Z,16.30
2018-05-25T05:08:22.886Z,16.30
2018-05-25T05:10:51.142Z,16.40
2018-05-25T05:13:19.359Z,16.50
2018-05-25T05:15:48.355Z,16.50
2018-05-25T05:18:17.335Z,16.40
2018-05-25T05:20:46.314Z,16.50
2018-05-25T05:23:14.565Z,16.50
2018-05-25T05:25:42.783Z,16.50
2018-05-25T05:28:11.806Z,16.50
2018-05-25T05:30:40.042Z,16.50
2018-05-25T05:33:08.243Z,16.60
2018-05-25T05:35:37.149Z,16.50
2018-05-25T05:38:05.409Z,16.60
2018-05-25T05:40:34.389Z,16.70
2018-05-25T05:43:03.377Z,16.70
2018-05-25T05:45:31.599Z,16.70
2018-05-25T05:47:59.824Z,16.90
2018-05-25T05:50:30.170Z,16.80
2018-05-25T05:52:58.427Z,16.80
2018-05-25T05:55:26.645Z,16.80
2018-05-25T05:57:54.876Z,16.90
2018-05-25T06:00:23.855Z,17.10
2018-05-25T06:02:52.090Z,17.10
2018-05-25T06:05:20.319Z,17.30
2018-05-25T06:07:49.299Z,17.30
2018-05-25T06:10:17.518Z,17.30
2018-05-25T06:12:45.739Z,17.40
2018-05-25T06:15:13.979Z,17.40
2018-05-25T06:17:42.199Z,18.20
2018-05-25T06:20:10.429Z,19.50
2018-05-25T06:22:38.643Z,19.60
2018-05-25T06:25:06.878Z,19.30
2018-05-25T06:27:35.090Z,18.90
2018-05-25T06:30:03.332Z,18.80
2018-05-25T06:32:31.545Z,19.00
2018-05-25T06:34:59.773Z,19.20
2018-05-25T06:37:27.995Z,19.30
2018-05-25T06:39:56.209Z,19.70
2018-05-25T06:42:24.431Z,20.60
2018-05-25T06:44:52.671Z,22.20
2018-05-25T06:47:20.940Z,23.40
2018-05-25T06:49:49.165Z,23.60
2018-05-25T06:52:17.377Z,25.00
2018-05-25T06:54:45.730Z,27.00
2018-05-25T06:57:13.902Z,28.90
2018-05-25T06:59:42.120Z,30.40
2018-05-25T07:02:10.374Z,30.40
2018-05-25T07:04:39.409Z,31.90
2018-05-25T07:07:07.636Z,31.90
2018-05-25T07:09:35.858Z,33.30
2018-05-25T07:12:04.086Z,32.80
2018-05-25T07:14:32.293Z,33.60
2018-05-25T07:17:00.578Z,34.30
2018-05-25T07:19:29.533Z,33.90
2018-05-25T07:21:58.536Z,34.30
2018-05-25T07:24:27.552Z,35.00
2018-05-25T07:26:55.919Z,34.90
2018-05-25T07:29:24.034Z,35.60
2018-05-25T07:31:52.307Z,35.10
2018-05-25T07:34:20.555Z,35.40
2018-05-25T07:36:48.858Z,34.80
2018-05-25T07:39:17.100Z,34.40
2018-05-25T07:41:45.316Z,35.20
2018-05-25T07:44:13.536Z,35.70
2018-05-25T07:46:42.529Z,34.90
2018-05-25T07:49:11.547Z,36.00
2018-05-25T07:51:39.812Z,36.00
2018-05-25T07:54:08.022Z,36.20
2018-05-25T07:56:36.290Z,36.70
2018-05-25T07:59:04.477Z,37.70
2018-05-25T08:01:32.761Z,37.90
2018-05-25T08:04:00.994Z,37.90
2018-05-25T08:06:29.328Z,38.20
2018-05-25T08:08:57.525Z,38.30
2018-05-25T08:11:26.519Z,36.60
2018-05-25T08:13:56.411Z,36.50
2018-05-25T08:16:25.423Z,37.20
2018-05-25T08:18:54.419Z,38.50
2018-05-25T08:21:23.399Z,39.00
2018-05-25T08:23:51.630Z,38.90
2018-05-25T08:26:19.827Z,38.30
2018-05-25T08:28:48.406Z,38.90
2018-05-25T08:31:16.621Z,38.10
2018-05-25T08:33:45.653Z,38.40
2018-05-25T08:36:13.887Z,38.40
2018-05-25T08:38:42.278Z,37.50
2018-05-25T08:41:10.553Z,38.00
2018-05-25T08:43:39.548Z,36.70
2018-05-25T08:46:07.766Z,36.70
2018-05-25T08:48:35.998Z,35.10
2018-05-25T08:51:04.221Z,34.00
2018-05-25T08:53:32.463Z,33.20
2018-05-25T08:56:00.669Z,33.40
2018-05-25T08:58:28.979Z,34.30
2018-05-25T09:00:57.257Z,33.80
2018-05-25T09:03:26.265Z,29.60
2018-05-25T09:05:55.261Z,28.00
2018-05-25T09:08:23.486Z,27.90
2018-05-25T09:10:51.700Z,26.60
2018-05-25T09:13:20.710Z,25.00
2018-05-25T09:15:48.956Z,25.00
2018-05-25T09:18:17.178Z,25.10
2018-05-25T09:20:45.423Z,25.00
2018-05-25T09:23:13.710Z,24.80
2018-05-25T09:25:41.916Z,24.50
2018-05-25T09:28:10.165Z,24.40
2018-05-25T09:30:39.157Z,24.40
2018-05-25T09:33:07.400Z,24.30
2018-05-25T09:35:35.618Z,24.00
2018-05-25T09:38:03.849Z,23.90
2018-05-25T09:40:32.107Z,24.10
2018-05-25T09:43:00.310Z,24.10
2018-05-25T09:45:29.290Z,24.10
2018-05-25T09:47:57.514Z,24.10
2018-05-25T09:50:25.736Z,23.90
2018-05-25T09:52:53.967Z,23.80
2018-05-25T09:55:22.195Z,24.00
2018-05-25T09:57:58.008Z,24.30
2018-05-25T10:00:26.230Z,24.30
2018-05-25T10:02:54.452Z,24.40
2018-05-25T10:05:22.669Z,24.20
2018-05-25T10:07:50.893Z,24.00
2018-05-25T10:10:19.124Z,23.80
2018-05-25T10:12:47.399Z,24.00
2018-05-25T10:15:15.811Z,24.00
2018-05-25T10:17:44.675Z,24.00
2018-05-25T10:20:13.730Z,24.40
2018-05-25T10:22:41.937Z,24.40
2018-05-25T10:25:10.147Z,24.50
2018-05-25T10:27:38.395Z,24.50
2018-05-25T10:30:06.593Z,24.60
2018-05-25T10:32:34.836Z,24.50
2018-05-25T10:35:03.626Z,24.50
2018-05-25T10:37:31.814Z,24.50
2018-05-25T10:40:00.803Z,24.70
2018-05-25T10:42:29.801Z,24.80
2018-05-25T10:44:58.798Z,24.90
2018-05-25T10:47:27.776Z,25.00
2018-05-25T10:49:55.994Z,25.00
2018-05-25T10:52:24.218Z,25.00
2018-05-25T10:54:52.418Z,24.90
2018-05-25T10:57:20.648Z,24.60
2018-05-25T10:59:49.710Z,24.10
2018-05-25T11:02:17.917Z,24.10
2018-05-25T11:04:46.134Z,24.00
2018-05-25T11:07:15.129Z,23.80
2018-05-25T11:09:44.109Z,23.70
2018-05-25T11:12:12.314Z,23.70
2018-05-25T11:14:40.547Z,23.60
2018-05-25T11:17:08.778Z,23.50
2018-05-25T11:19:37.007Z,23.50
2018-05-25T11:22:05.259Z,23.60
2018-05-25T11:24:33.478Z,23.90
2018-05-25T11:27:01.735Z,24.10
2018-05-25T11:29:29.958Z,24.40
2018-05-25T11:31:58.196Z,24.50
2018-05-25T11:34:27.225Z,24.70
2018-05-25T11:36:55.494Z,24.70
2018-05-25T11:39:23.706Z,24.80
2018-05-25T11:41:51.920Z,24.90
2018-05-25T11:44:20.901Z,24.80
2018-05-25T11:46:49.899Z,24.80
2018-05-25T11:49:18.125Z,24.80
2018-05-25T11:51:46.352Z,24.80
2018-05-25T11:54:15.336Z,24.90
2018-05-25T11:56:43.569Z,24.90
2018-05-25T11:59:11.800Z,24.90
2018-05-25T12:01:40.089Z,25.00
2018-05-25T12:04:08.421Z,25.00
2018-05-25T12:06:36.643Z,25.10
2018-05-25T12:09:06.607Z,25.30
2018-05-25T12:11:34.881Z,25.30
2018-05-25T12:14:03.065Z,25.30
2018-05-25T12:16:31.312Z,25.30
2018-05-25T12:19:00.251Z,25.40
2018-05-25T12:21:28.506Z,25.40
2018-05-25T12:23:56.730Z,25.20
2018-05-25T12:26:24.953Z,25.20
2018-05-25T12:28:53.196Z,25.20
2018-05-25T12:31:21.405Z,25.20
2018-05-25T12:33:49.608Z,25.30
2018-05-25T12:36:18.597Z,25.10
2018-05-25T12:38:46.852Z,25.10
2018-05-25T12:41:15.078Z,25.00
2018-05-25T12:43:43.407Z,25.00
2018-05-25T12:46:11.765Z,25.10
2018-05-25T12:48:39.996Z,25.40
2018-05-25T12:51:08.989Z,25.60
2018-05-25T12:53:37.214Z,25.60
2018-05-25T12:56:05.450Z,25.50
2018-05-25T12:58:33.675Z,25.50
2018-05-25T13:01:01.948Z,25.40
2018-05-25T13:03:30.854Z,25.40
2018-05-25T13:05:59.327Z,25.40
2018-05-25T13:08:27.640Z,25.30
2018-05-25T13:10:55.873Z,25.30
2018-05-25T13:13:24.139Z,25.30
2018-05-25T13:15:52.423Z,25.50
2018-05-25T13:18:20.727Z,25.60
2018-05-25T13:20:48.934Z,25.70
2018-05-25T13:23:17.137Z,25.90
2018-05-25T13:25:45.380Z,25.90
2018-05-25T13:28:13.610Z,26.00
2018-05-25T13:30:41.846Z,25.60
2018-05-25T13:33:10.062Z,25.50
2018-05-25T13:35:38.319Z,25.60
2018-05-25T13:38:06.619Z,25.70
2018-05-25T13:40:34.807Z,25.80
2018-05-25T13:43:04.111Z,25.80
2018-05-25T13:45:32.588Z,25.80
2018-05-25T13:48:01.608Z,25.90
2018-05-25T13:50:29.814Z,25.90
2018-05-25T13:52:58.205Z,26.10
2018-05-25T13:55:26.415Z,26.10
2018-05-25T13:57:55.391Z,26.10
2018-05-25T14:00:23.643Z,26.10
2018-05-25T14:02:51.893Z,26.10
2018-05-25T14:05:20.222Z,26.00
2018-05-25T14:07:48.499Z,25.90
2018-05-25T14:10:16.829Z,25.90
2018-05-25T14:12:45.108Z,25.90
2018-05-25T14:15:13.451Z,25.90
2018-05-25T14:17:41.745Z,26.00
2018-05-25T14:20:10.509Z,26.00
2018-05-25T14:22:39.618Z,25.90
2018-05-25T14:25:08.719Z,25.80
2018-05-25T14:27:37.112Z,25.80
2018-05-25T14:30:05.472Z,25.70
2018-05-25T14:32:34.440Z,25.60
2018-05-25T14:35:02.824Z,25.60
2018-05-25T14:37:31.119Z,25.60
2018-05-25T14:39:59.779Z,25.70
2018-05-25T14:42:27.997Z,25.70
2018-05-25T14:44:56.249Z,25.70
2018-05-25T14:47:24.732Z,25.60
2018-05-25T14:49:53.034Z,25.60
2018-05-25T14:52:21.327Z,25.60
2018-05-25T14:54:49.614Z,25.70
2018-05-25T14:57:18.181Z,25.80
2018-05-25T14:59:46.563Z,25.80
2018-05-25T15:02:14.967Z,25.90
2018-05-25T15:04:43.287Z,25.90
2018-05-25T15:07:11.626Z,25.90
2018-05-25T15:09:39.947Z,25.80
2018-05-25T15:12:08.145Z,25.70
2018-05-25T15:14:36.378Z,25.70
2018-05-25T15:17:04.598Z,25.70
2018-05-25T15:19:32.886Z,25.70
2018-05-25T15:22:01.085Z,25.70
2018-05-25T15:24:30.095Z,25.70
2018-05-25T15:26:59.852Z,25.70
2018-05-25T15:29:29.009Z,25.60
2018-05-25T15:31:57.209Z,25.60
2018-05-25T15:34:25.478Z,25.60
2018-05-25T15:36:53.735Z,25.60
2018-05-25T15:39:22.711Z,25.70
2018-05-25T15:41:52.111Z,25.60
2018-05-25T15:44:20.352Z,25.60
2018-05-25T15:46:48.600Z,25.50
2018-05-25T15:49:17.597Z,25.50
2018-05-25T15:51:45.827Z,25.50
2018-05-25T15:54:14.050Z,25.40
2018-05-25T15:56:42.237Z,25.30
2018-05-25T15:59:10.464Z,25.30
2018-05-25T16:01:39.447Z,25.30
2018-05-25T16:04:07.663Z,25.30
2018-05-25T16:06:35.890Z,25.30
2018-05-25T16:09:04.187Z,25.20
2018-05-25T16:11:32.366Z,25.20
2018-05-25T16:14:00.596Z,25.10
2018-05-25T16:16:28.822Z,25.10
2018-05-25T16:18:57.047Z,25.10
2018-05-25T16:21:25.266Z,25.10
2018-05-25T16:23:54.263Z,25.00
2018-05-25T16:26:22.535Z,25.00
2018-05-25T16:28:51.547Z,25.10
2018-05-25T16:31:19.754Z,25.10
2018-05-25T16:33:48.118Z,25.00
2018-05-25T16:36:16.322Z,25.10
2018-05-25T16:38:44.547Z,25.20
2018-05-25T16:41:12.775Z,25.20
2018-05-25T16:43:41.013Z,25.20
2018-05-25T16:46:09.276Z,25.20
2018-05-25T16:48:37.581Z,25.30
2018-05-25T16:51:05.859Z,25.20
2018-05-25T16:53:34.114Z,25.20
2018-05-25T16:56:02.394Z,25.10
2018-05-25T16:58:30.595Z,25.10
2018-05-25T17:00:58.828Z,25.00
2018-05-25T17:03:27.038Z,25.00
2018-05-25T17:05:55.270Z,25.00
2018-05-25T17:08:23.595Z,25.00
2018-05-25T17:10:51.859Z,25.00
2018-05-25T17:13:20.093Z,25.00
2018-05-25T17:15:49.126Z,24.80
2018-05-25T17:18:17.331Z,24.80
2018-05-25T17:20:45.577Z,24.80
2018-05-25T17:23:13.798Z,24.80
2018-05-25T17:25:42.814Z,24.70
2018-05-25T17:28:11.034Z,24.70
2018-05-25T17:30:39.282Z,24.70
2018-05-25T17:33:08.257Z,24.70
2018-05-25T17:35:37.227Z,24.70
2018-05-25T17:38:06.264Z,24.70
2018-05-25T17:40:34.458Z,24.60
2018-05-25T17:43:02.692Z,24.50
2018-05-25T17:45:30.944Z,24.50
2018-05-25T17:47:59.160Z,24.50
2018-05-25T17:50:27.414Z,24.50
2018-05-25T17:52:56.376Z,24.50
2018-05-25T17:55:24.618Z,24.50
2018-05-25T17:57:52.830Z,24.50
2018-05-25T18:00:21.101Z,24.40
2018-05-25T18:02:49.325Z,24.40
2018-05-25T18:05:17.761Z,24.30
2018-05-25T18:07:45.948Z,24.30
2018-05-25T18:10:14.181Z,24.30
2018-05-25T18:12:42.434Z,24.20
2018-05-25T18:15:10.667Z,24.20
2018-05-25T18:17:38.891Z,24.20
2018-05-25T18:20:07.116Z,24.20
2018-05-25T18:22:36.204Z,24.20
2018-05-25T18:25:04.445Z,24.20
2018-05-25T18:27:32.672Z,24.20
2018-05-25T18:30:01.694Z,24.10
2018-05-25T18:32:30.019Z,24.10
2018-05-25T18:34:58.964Z,24.00
2018-05-25T18:37:27.192Z,24.00
2018-05-25T18:39:55.439Z,23.90
2018-05-25T18:42:23.676Z,23.80
2018-05-25T18:44:51.889Z,23.70
2018-05-25T18:47:20.163Z,23.70
2018-05-25T18:49:48.381Z,23.60
2018-05-25T18:52:16.612Z,23.50
2018-05-25T18:54:44.866Z,23.50
2018-05-25T18:57:13.104Z,23.40
2018-05-25T18:59:41.336Z,23.50
2018-05-25T19:02:09.566Z,23.40
2018-05-25T19:04:38.587Z,23.40
2018-05-25T19:07:06.916Z,23.30
2018-05-25T19:09:35.142Z,23.30
2018-05-25T19:12:03.342Z,23.20
2018-05-25T19:14:31.575Z,23.20
2018-05-25T19:16:59.828Z,23.10
2018-05-25T19:19:28.023Z,23.10
2018-05-25T19:21:57.026Z,23.00
2018-05-25T19:24:25.242Z,22.90
2018-05-25T19:26:53.502Z,22.90
2018-05-25T19:29:21.702Z,22.80
2018-05-25T19:31:49.962Z,22.80
2018-05-25T19:34:18.160Z,22.80
2018-05-25T19:36:46.455Z,22.80
2018-05-25T19:39:15.455Z,22.80
2018-05-25T19:41:44.441Z,22.70
2018-05-25T19:44:13.467Z,22.70
2018-05-25T19:46:41.693Z,22.60
2018-05-25T19:49:09.926Z,22.60
2018-05-25T19:51:38.132Z,22.50
2018-05-25T19:54:06.386Z,22.50
2018-05-25T19:56:34.668Z,22.40
2018-05-25T19:59:02.865Z,22.40
2018-05-25T20:01:31.109Z,22.40
2018-05-25T20:03:59.339Z,22.30
2018-05-25T20:06:27.564Z,22.30
2018-05-25T20:08:55.789Z,22.30
2018-05-25T20:11:24.014Z,22.30
2018-05-25T20:13:52.214Z,22.20
2018-05-25T20:16:20.459Z,22.10
2018-05-25T20:18:48.726Z,22.10
2018-05-25T20:21:17.707Z,22.00
2018-05-25T20:23:45.927Z,22.00
2018-05-25T20:26:14.158Z,22.00
2018-05-25T20:28:42.385Z,22.10
2018-05-25T20:31:11.363Z,21.90
2018-05-25T20:33:39.588Z,21.90
2018-05-25T20:36:07.793Z,21.80
2018-05-25T20:38:36.051Z,21.80
2018-05-25T20:41:04.292Z,21.70
2018-05-25T20:43:32.541Z,21.60
2018-05-25T20:46:01.484Z,21.60
2018-05-25T20:48:29.850Z,21.60
2018-05-25T20:50:58.051Z,21.50
2018-05-25T20:53:26.278Z,21.50
2018-05-25T20:55:54.519Z,21.50
2018-05-25T20:58:22.776Z,21.60
2018-05-25T21:00:51.015Z,21.60
2018-05-25T21:03:19.231Z,21.60
2018-05-25T21:05:47.465Z,21.60
2018-05-25T21:08:15.691Z,21.60
2018-05-25T21:10:43.952Z,21.50
2018-05-25T21:13:12.207Z,21.50
2018-05-25T21:15:40.436Z,21.50
2018-05-25T21:18:08.710Z,21.50
2018-05-25T21:20:36.918Z,21.50
2018-05-25T21:23:05.167Z,21.40
2018-05-25T21:25:33.388Z,21.30
2018-05-25T21:28:02.377Z,21.30
2018-05-25T21:30:31.354Z,21.20
2018-05-25T21:32:59.667Z,21.10
2018-05-25T21:35:27.851Z,21.10
2018-05-25T21:37:56.076Z,21.20
2018-05-25T21:40:24.282Z,21.10
2018-05-25T21:42:52.552Z,21.10
2018-05-25T21:45:21.539Z,20.90
2018-05-25T21:47:50.590Z,21.00
2018-05-25T21:50:18.859Z,21.00
2018-05-25T21:52:47.062Z,21.10
2018-05-25T21:55:15.273Z,21.00
2018-05-25T21:57:44.293Z,21.00
2018-05-25T22:00:12.521Z,20.90
2018-05-25T22:02:42.318Z,21.10
2018-05-25T22:05:10.690Z,21.10
2018-05-25T22:07:38.988Z,21.00
2018-05-25T22:10:07.212Z,21.00
2018-05-25T22:12:35.442Z,21.10
2018-05-25T22:15:04.434Z,20.80
2018-05-25T22:17:32.724Z,20.80
2018-05-25T22:20:00.995Z,20.80
2018-05-25T22:22:30.005Z,20.80
2018-05-25T22:24:58.254Z,20.80
2018-05-25T22:27:26.472Z,20.70
2018-05-25T22:29:54.677Z,20.70
2018-05-25T22:32:22.893Z,20.80
2018-05-25T22:34:51.901Z,20.90
2018-05-25T22:37:20.141Z,20.80
2018-05-25T22:39:48.366Z,20.80
2018-05-25T22:42:28.470Z,20.70
2018-05-25T22:45:08.489Z,20.70
2018-05-25T22:47:48.628Z,20.60
2018-05-25T22:50:28.443Z,20.40
2018-05-25T22:53:01.879Z,20.30
2018-05-25T22:55:30.085Z,20.40
2018-05-25T22:57:58.316Z,20.30
2018-05-25T23:00:26.531Z,20.30
2018-05-25T23:02:54.767Z,20.40
2018-05-25T23:05:22.986Z,20.40
2018-05-25T23:07:51.224Z,20.30
2018-05-25T23:10:19.422Z,20.20
2018-05-25T23:12:47.719Z,20.20
2018-05-25T23:15:15.947Z,20.10
2018-05-25T23:17:44.258Z,20.10
2018-05-25T23:20:12.446Z,20.10
2018-05-25T23:22:40.667Z,20.00
2018-05-25T23:25:08.889Z,19.90
2018-05-25T23:27:37.098Z,19.90
2018-05-25T23:30:05.347Z,19.90
2018-05-25T23:32:33.562Z,20.10
2018-05-25T23:35:01.806Z,20.10
2018-05-25T23:37:30.801Z,20.20
2018-05-25T23:39:59.787Z,20.10
2018-05-25T23:42:28.022Z,20.10
2018-05-25T23:44:56.237Z,19.90
2018-05-25T23:47:25.246Z,20.00
2018-05-25T23:49:55.227Z,19.90
2018-05-25T23:52:23.462Z,19.90
2018-05-25T23:54:51.698Z,19.90
2018-05-25T23:57:19.910Z,19.60
2018-05-25T23:59:48.130Z,19.60
